sensor_id;sensor_type;location;lat;lon;timestamp;P1;durP1;ratioP1;P2;durP2;ratioP2
26838;SDS011;40088;51.214;6.786;2022-09-17T00:04:43;4.25;;;1.73;;
26838;SDS011;40088;51.214;6.786;2022-09-17T00:14:43;5.43;;;2.00;;
26838;SDS011;40088;51.214;6.786;2022-09-17T00:24:44;3.83;;;1.73;;
26838;SDS011;40088;51.214;6.786;2022-09-17T00:34:44;6.40;;;1.60;;
26838;SDS011;40088;51.214;6.786;2022-09-17T00:44:47;6.18;;;1.60;;
26838;SDS011;40088;51.214;6.786;2022-09-17T00:54:57;4.07;;;1.50;;
26838;SDS011;40088;51.214;6.786;2022-09-17T01:05:26;6.75;;;2.10;;
26838;SDS011;40088;51.214;6.786;2022-09-17T01:36:34;6.40;;;1.90;;
26838;SDS011;40088;51.214;6.786;2022-09-17T01:46:42;5.22;;;2.00;;
26838;SDS011;40088;51.214;6.786;2022-09-17T02:06:57;6.70;;;1.90;;
26838;SDS011;40088;51.214;6.786;2022-09-17T02:17:06;6.50;;;1.92;;
26838;SDS011;40088;51.214;6.786;2022-09-17T02:27:23;6.30;;;2.03;;
26838;SDS011;40088;51.214;6.786;2022-09-17T02:37:30;5.07;;;1.60;;
26838;SDS011;40088;51.214;6.786;2022-09-17T02:57:59;7.05;;;2.15;;
26838;SDS011;40088;51.214;6.786;2022-09-17T03:08:12;7.10;;;2.25;;
26838;SDS011;40088;51.214;6.786;2022-09-17T03:18:13;5.40;;;1.77;;
26838;SDS011;40088;51.214;6.786;2022-09-17T03:28:14;5.72;;;1.90;;
26838;SDS011;40088;51.214;6.786;2022-09-17T03:38:15;5.95;;;1.90;;
26838;SDS011;40088;51.214;6.786;2022-09-17T03:48:16;4.13;;;1.90;;
26838;SDS011;40088;51.214;6.786;2022-09-17T03:58:16;7.68;;;2.10;;
26838;SDS011;40088;51.214;6.786;2022-09-17T04:08:17;5.88;;;1.98;;
26838;SDS011;40088;51.214;6.786;2022-09-17T04:18:17;9.57;;;2.47;;
26838;SDS011;40088;51.214;6.786;2022-09-17T04:28:17;6.05;;;2.03;;
26838;SDS011;40088;51.214;6.786;2022-09-17T04:38:17;4.95;;;2.05;;
26838;SDS011;40088;51.214;6.786;2022-09-17T04:48:19;10.23;;;2.10;;
26838;SDS011;40088;51.214;6.786;2022-09-17T04:58:19;6.90;;;2.03;;
26838;SDS011;40088;51.214;6.786;2022-09-17T05:08:20;6.50;;;2.08;;
26838;SDS011;40088;51.214;6.786;2022-09-17T05:18:22;5.87;;;1.90;;
26838;SDS011;40088;51.214;6.786;2022-09-17T05:28:23;6.97;;;2.22;;
26838;SDS011;40088;51.214;6.786;2022-09-17T05:38:23;5.10;;;2.20;;
26838;SDS011;40088;51.214;6.786;2022-09-17T05:48:23;4.43;;;1.70;;
26838;SDS011;40088;51.214;6.786;2022-09-17T05:58:24;6.13;;;1.92;;
26838;SDS011;40088;51.214;6.786;2022-09-17T06:08:26;5.03;;;1.77;;
26838;SDS011;40088;51.214;6.786;2022-09-17T06:18:28;8.23;;;2.17;;
26838;SDS011;40088;51.214;6.786;2022-09-17T06:28:29;7.75;;;2.05;;
26838;SDS011;40088;51.214;6.786;2022-09-17T06:38:31;4.85;;;1.92;;
26838;SDS011;40088;51.214;6.786;2022-09-17T06:48:33;6.00;;;1.77;;
26838;SDS011;40088;51.214;6.786;2022-09-17T06:58:35;4.72;;;1.75;;
26838;SDS011;40088;51.214;6.786;2022-09-17T07:08:42;5.80;;;1.85;;
26838;SDS011;40088;51.214;6.786;2022-09-17T07:18:43;4.72;;;1.60;;
26838;SDS011;40088;51.214;6.786;2022-09-17T07:28:43;5.05;;;1.65;;
26838;SDS011;40088;51.214;6.786;2022-09-17T07:38:44;7.27;;;2.10;;
26838;SDS011;40088;51.214;6.786;2022-09-17T07:48:45;6.18;;;2.28;;
26838;SDS011;40088;51.214;6.786;2022-09-17T07:58:46;8.20;;;2.30;;
26838;SDS011;40088;51.214;6.786;2022-09-17T08:08:47;8.77;;;2.13;;
26838;SDS011;40088;51.214;6.786;2022-09-17T08:18:48;10.55;;;2.63;;
26838;SDS011;40088;51.214;6.786;2022-09-17T08:28:54;8.90;;;2.00;;
26838;SDS011;40088;51.214;6.786;2022-09-17T08:38:55;6.50;;;1.83;;
26838;SDS011;40088;51.214;6.786;2022-09-17T09:09:24;7.18;;;1.70;;
26838;SDS011;40088;51.214;6.786;2022-09-17T09:19:29;5.30;;;1.80;;
26838;SDS011;40088;51.214;6.786;2022-09-17T09:39:45;5.70;;;1.60;;
26838;SDS011;40088;51.214;6.786;2022-09-17T10:00:21;6.60;;;1.63;;
26838;SDS011;40088;51.214;6.786;2022-09-17T10:10:22;4.03;;;1.55;;
26838;SDS011;40088;51.214;6.786;2022-09-17T10:20:22;3.72;;;1.50;;
26838;SDS011;40088;51.214;6.786;2022-09-17T10:30:22;6.45;;;1.40;;
26838;SDS011;40088;51.214;6.786;2022-09-17T10:40:26;3.83;;;1.58;;
26838;SDS011;40088;51.214;6.786;2022-09-17T10:50:28;5.50;;;2.00;;
26838;SDS011;40088;51.214;6.786;2022-09-17T11:00:37;6.20;;;1.40;;
26838;SDS011;40088;51.214;6.786;2022-09-17T11:11:04;5.18;;;1.35;;
26838;SDS011;40088;51.214;6.786;2022-09-17T11:51:29;2.85;;;1.00;;
26838;SDS011;40088;51.214;6.786;2022-09-17T12:01:38;3.30;;;0.80;;
26838;SDS011;40088;51.214;6.786;2022-09-17T12:11:49;2.70;;;1.10;;
26838;SDS011;40088;51.214;6.786;2022-09-17T12:21:56;1.95;;;0.90;;
26838;SDS011;40088;51.214;6.786;2022-09-17T13:03:42;1.98;;;1.13;;
26838;SDS011;40088;51.214;6.786;2022-09-17T13:14:02;1.92;;;0.90;;
26838;SDS011;40088;51.214;6.786;2022-09-17T13:34:30;4.13;;;1.10;;
26838;SDS011;40088;51.214;6.786;2022-09-17T13:44:33;2.70;;;1.10;;
26838;SDS011;40088;51.214;6.786;2022-09-17T13:54:54;1.88;;;1.00;;
26838;SDS011;40088;51.214;6.786;2022-09-17T14:05:16;2.35;;;0.95;;
26838;SDS011;40088;51.214;6.786;2022-09-17T14:25:41;4.55;;;1.02;;
26838;SDS011;40088;51.214;6.786;2022-09-17T14:35:49;2.20;;;0.85;;
26838;SDS011;40088;51.214;6.786;2022-09-17T14:45:51;2.07;;;1.10;;
26838;SDS011;40088;51.214;6.786;2022-09-17T14:55:52;2.63;;;1.33;;
26838;SDS011;40088;51.214;6.786;2022-09-17T15:05:52;5.90;;;1.50;;
26838;SDS011;40088;51.214;6.786;2022-09-17T15:16:00;4.50;;;1.20;;
26838;SDS011;40088;51.214;6.786;2022-09-17T15:26:03;3.53;;;1.27;;
26838;SDS011;40088;51.214;6.786;2022-09-17T15:36:13;2.65;;;1.27;;
26838;SDS011;40088;51.214;6.786;2022-09-17T15:46:33;4.00;;;1.50;;
26838;SDS011;40088;51.214;6.786;2022-09-17T15:56:34;4.13;;;1.30;;
26838;SDS011;40088;51.214;6.786;2022-09-17T16:06:37;5.78;;;1.65;;
26838;SDS011;40088;51.214;6.786;2022-09-17T16:16:37;4.43;;;1.40;;
26838;SDS011;40088;51.214;6.786;2022-09-17T16:26:37;4.15;;;1.48;;
26838;SDS011;40088;51.214;6.786;2022-09-17T16:36:39;5.40;;;1.50;;
26838;SDS011;40088;51.214;6.786;2022-09-17T16:46:41;7.60;;;1.75;;
26838;SDS011;40088;51.214;6.786;2022-09-17T16:56:41;5.05;;;1.40;;
26838;SDS011;40088;51.214;6.786;2022-09-17T17:06:41;5.50;;;1.40;;
26838;SDS011;40088;51.214;6.786;2022-09-17T17:16:41;5.53;;;1.63;;
26838;SDS011;40088;51.214;6.786;2022-09-17T17:26:42;4.67;;;1.83;;
26838;SDS011;40088;51.214;6.786;2022-09-17T17:36:42;3.90;;;1.90;;
26838;SDS011;40088;51.214;6.786;2022-09-17T17:46:43;3.85;;;1.35;;
26838;SDS011;40088;51.214;6.786;2022-09-17T17:56:43;5.22;;;1.80;;
26838;SDS011;40088;51.214;6.786;2022-09-17T18:06:44;3.60;;;1.45;;
26838;SDS011;40088;51.214;6.786;2022-09-17T18:16:46;5.80;;;2.00;;
26838;SDS011;40088;51.214;6.786;2022-09-17T18:26:47;8.30;;;2.03;;
26838;SDS011;40088;51.214;6.786;2022-09-17T18:36:47;6.13;;;1.70;;
26838;SDS011;40088;51.214;6.786;2022-09-17T18:46:47;7.20;;;1.80;;
26838;SDS011;40088;51.214;6.786;2022-09-17T18:56:48;6.55;;;2.15;;
26838;SDS011;40088;51.214;6.786;2022-09-17T19:06:49;5.20;;;1.95;;
26838;SDS011;40088;51.214;6.786;2022-09-17T19:16:49;6.50;;;2.22;;
26838;SDS011;40088;51.214;6.786;2022-09-17T19:26:49;10.40;;;2.95;;
26838;SDS011;40088;51.214;6.786;2022-09-17T19:36:50;6.07;;;2.08;;
26838;SDS011;40088;51.214;6.786;2022-09-17T19:46:50;5.28;;;1.77;;
26838;SDS011;40088;51.214;6.786;2022-09-17T19:56:52;5.65;;;1.90;;
26838;SDS011;40088;51.214;6.786;2022-09-17T20:06:52;9.45;;;2.15;;
26838;SDS011;40088;51.214;6.786;2022-09-17T20:16:52;4.45;;;1.50;;
26838;SDS011;40088;51.214;6.786;2022-09-17T20:26:52;5.32;;;1.63;;
26838;SDS011;40088;51.214;6.786;2022-09-17T20:36:53;3.42;;;1.20;;
26838;SDS011;40088;51.214;6.786;2022-09-17T20:46:53;5.78;;;1.30;;
26838;SDS011;40088;51.214;6.786;2022-09-17T20:56:54;3.67;;;1.23;;
26838;SDS011;40088;51.214;6.786;2022-09-17T21:06:55;4.60;;;1.70;;
26838;SDS011;40088;51.214;6.786;2022-09-17T21:16:55;4.40;;;1.48;;
26838;SDS011;40088;51.214;6.786;2022-09-17T21:26:55;3.25;;;1.38;;
26838;SDS011;40088;51.214;6.786;2022-09-17T21:36:56;5.68;;;1.33;;
26838;SDS011;40088;51.214;6.786;2022-09-17T21:46:57;3.63;;;1.65;;
26838;SDS011;40088;51.214;6.786;2022-09-17T21:56:57;3.85;;;1.20;;
26838;SDS011;40088;51.214;6.786;2022-09-17T22:06:58;5.63;;;1.50;;
26838;SDS011;40088;51.214;6.786;2022-09-17T22:16:59;5.38;;;1.65;;
26838;SDS011;40088;51.214;6.786;2022-09-17T22:27:00;4.63;;;1.83;;
26838;SDS011;40088;51.214;6.786;2022-09-17T22:37:00;4.13;;;2.25;;
26838;SDS011;40088;51.214;6.786;2022-09-17T22:47:02;3.53;;;1.52;;
26838;SDS011;40088;51.214;6.786;2022-09-17T22:57:02;4.15;;;1.45;;
26838;SDS011;40088;51.214;6.786;2022-09-17T23:07:02;3.58;;;1.50;;
26838;SDS011;40088;51.214;6.786;2022-09-17T23:17:03;4.33;;;1.80;;
26838;SDS011;40088;51.214;6.786;2022-09-17T23:27:04;4.38;;;1.50;;
26838;SDS011;40088;51.214;6.786;2022-09-17T23:37:04;4.63;;;1.50;;
26838;SDS011;40088;51.214;6.786;2022-09-17T23:47:04;5.47;;;1.70;;
26838;SDS011;40088;51.214;6.786;2022-09-17T23:57:05;3.70;;;1.73;;
